Time;durP1;ratioP1;P1;durP2;ratioP2;P2;SDS_P1;SDS_P2;PMS_P1;PMS_P2;Temp;Humidity;BMP_temperature;BMP_pressure;BME280_temperature;BME280_humidity;BME280_pressure;Samples;Min_cycle;Max_cycle;Signal;HPM_P1;HPM_P2
2022/12/10 00:01:43;;;;;;;9.52;4.45;;;;;;;;;;7392457;19;20479;-71
2022/12/10 00:04:09;;;;;;;13.38;6.30;;;;;;;;;;7394443;19;20034;-69
2022/12/10 00:06:36;;;;;;;11.45;5.35;;;;;;;;;;7391203;19;20458;-69
2022/12/10 00:09:04;;;;;;;11.68;5.72;;;;;;;;;;7392467;19;20002;-70
2022/12/10 00:11:30;;;;;;;8.82;4.32;;;;;;;;;;7392446;19;20010;-70
2022/12/10 00:13:56;;;;;;;10.85;5.80;;;;;;;;;;7391481;19;20425;-70
2022/12/10 00:16:23;;;;;;;10.82;5.22;;;;;;;;;;7389970;19;19998;-71
2022/12/10 00:18:50;;;;;;;10.70;5.68;;;;;;;;;;7392268;19;20023;-70
2022/12/10 00:21:18;;;;;;;15.27;6.38;;;;;;;;;;7392055;19;20002;-70
2022/12/10 00:23:44;;;;;;;13.55;6.95;;;;;;;;;;7390238;19;20401;-68
2022/12/10 00:26:15;;;;;;;11.45;5.32;;;;;;;;;;7391139;19;20007;-69
2022/12/10 00:28:41;;;;;;;12.80;6.13;;;;;;;;;;7392101;19;20377;-70
2022/12/10 00:31:12;;;;;;;10.07;5.43;;;;;;;;;;7391792;19;20005;-69
2022/12/10 00:33:38;;;;;;;9.57;4.95;;;;;;;;;;7391181;19;19998;-71
2022/12/10 00:36:07;;;;;;;10.23;5.28;;;;;;;;;;7389643;19;20002;-69
2022/12/10 00:38:33;;;;;;;11.07;5.78;;;;;;;;;;7391586;19;20012;-70
2022/12/10 00:40:59;;;;;;;12.98;5.53;;;;;;;;;;7391353;19;19991;-70
2022/12/10 00:43:24;;;;;;;13.70;5.95;;;;;;;;;;7389261;19;19995;-70
2022/12/10 00:45:49;;;;;;;13.35;5.60;;;;;;;;;;7391274;19;20009;-69
2022/12/10 00:48:15;;;;;;;15.38;6.55;;;;;;;;;;7391808;19;20063;-70
2022/12/10 00:50:40;;;;;;;12.85;5.47;;;;;;;;;;7395955;19;20002;-69
2022/12/10 00:53:05;;;;;;;11.25;5.07;;;;;;;;;;7396687;19;20511;-69
2022/12/10 00:55:30;;;;;;;15.13;6.22;;;;;;;;;;7396632;19;20002;-70
2022/12/10 00:57:56;;;;;;;14.30;6.72;;;;;;;;;;7398670;19;20006;-69
2022/12/10 01:00:21;;;;;;;12.23;5.80;;;;;;;;;;7398919;19;20077;-70
2022/12/10 01:02:46;;;;;;;13.27;6.50;;;;;;;;;;7396132;19;20003;-70
2022/12/10 01:05:12;;;;;;;10.40;5.70;;;;;;;;;;7398720;19;20003;-69
2022/12/10 01:07:37;;;;;;;10.68;5.10;;;;;;;;;;7396561;19;19999;-70
2022/12/10 01:10:03;;;;;;;14.73;6.85;;;;;;;;;;7397951;19;20073;-70
2022/12/10 01:12:28;;;;;;;12.13;5.45;;;;;;;;;;7396692;19;20026;-70
2022/12/10 01:14:53;;;;;;;12.98;6.18;;;;;;;;;;7400431;19;19991;-71
2022/12/10 01:17:20;;;;;;;10.25;5.63;;;;;;;;;;7395299;19;20239;-70
2022/12/10 01:19:46;;;;;;;11.43;6.13;;;;;;;;;;7397478;19;20010;-71
2022/12/10 01:22:11;;;;;;;10.88;5.18;;;;;;;;;;7396271;19;20012;-71
2022/12/10 01:24:36;;;;;;;13.32;6.22;;;;;;;;;;7396654;19;20002;-70
2022/12/10 01:27:02;;;;;;;10.93;5.28;;;;;;;;;;7395630;19;19999;-70
2022/12/10 01:29:27;;;;;;;13.05;6.30;;;;;;;;;;7396177;19;20365;-69
2022/12/10 01:31:54;;;;;;;12.93;5.93;;;;;;;;;;7397542;19;19994;-70
2022/12/10 01:34:20;;;;;;;12.60;6.55;;;;;;;;;;7400439;19;19999;-70
2022/12/10 01:36:51;;;;;;;11.10;5.50;;;;;;;;;;7394263;19;20003;-70
2022/12/10 01:39:18;;;;;;;14.27;6.60;;;;;;;;;;7398118;19;20013;-71
2022/12/10 01:41:47;;;;;;;16.15;6.53;;;;;;;;;;7395688;19;20452;-70
2022/12/10 01:44:12;;;;;;;11.73;5.85;;;;;;;;;;7397308;19;19999;-71
2022/12/10 01:46:41;;;;;;;11.57;6.63;;;;;;;;;;7395637;19;20010;-70
2022/12/10 01:49:12;;;;;;;9.63;5.45;;;;;;;;;;7398809;19;20337;-70
2022/12/10 01:51:40;;;;;;;16.35;6.43;;;;;;;;;;7396937;19;20373;-70
2022/12/10 01:54:09;;;;;;;13.52;5.78;;;;;;;;;;7396314;19;19995;-69
2022/12/10 01:56:37;;;;;;;12.13;6.05;;;;;;;;;;7395242;19;19998;-69
2022/12/10 01:59:04;;;;;;;12.35;5.90;;;;;;;;;;7396527;19;20003;-69
2022/12/10 02:01:48;;;;;;;15.13;6.47;;;;;;;;;;7395213;19;20010;-68
2022/12/10 02:04:35;;;;;;;15.57;6.38;;;;;;;;;;7395612;19;19995;-71
2022/12/10 02:07:13;;;;;;;14.63;6.57;;;;;;;;;;7399170;19;20007;-70
2022/12/10 02:10:15;;;;;;;12.43;5.03;;;;;;;;;;7396420;19;20356;-70
2022/12/10 02:12:51;;;;;;;12.68;5.45;;;;;;;;;;7395040;19;20017;-70
2022/12/10 02:15:26;;;;;;;11.30;5.55;;;;;;;;;;7398624;19;20037;-69
2022/12/10 02:18:07;;;;;;;11.30;5.70;;;;;;;;;;7396982;19;20007;-71
2022/12/10 02:20:38;;;;;;;19.13;6.47;;;;;;;;;;7394539;19;20003;-70
2022/12/10 02:23:17;;;;;;;12.23;5.95;;;;;;;;;;7393824;19;20029;-69
2022/12/10 02:26:00;;;;;;;12.82;6.60;;;;;;;;;;7395296;19;19998;-70
2022/12/10 02:28:54;;;;;;;11.75;5.45;;;;;;;;;;7396133;19;20002;-69
2022/12/10 02:31:25;;;;;;;12.10;5.78;;;;;;;;;;7394395;19;20002;-70
2022/12/10 02:33:56;;;;;;;11.75;5.65;;;;;;;;;;7395303;19;20002;-70
2022/12/10 02:36:25;;;;;;;14.93;5.78;;;;;;;;;;7394474;19;20002;-70
2022/12/10 02:38:51;;;;;;;13.98;5.60;;;;;;;;;;7395300;19;20006;-70
2022/12/10 02:41:28;;;;;;;10.40;5.03;;;;;;;;;;7395455;19;20344;-69
2022/12/10 02:43:55;;;;;;;12.38;6.25;;;;;;;;;;7394670;19;19995;-70
2022/12/10 02:46:24;;;;;;;11.00;5.22;;;;;;;;;;7394274;19;20437;-69
2022/12/10 02:48:50;;;;;;;11.35;5.50;;;;;;;;;;7395246;19;20002;-69
2022/12/10 02:51:16;;;;;;;10.82;4.68;;;;;;;;;;7395358;19;20053;-70
2022/12/10 02:53:45;;;;;;;10.48;5.40;;;;;;;;;;7394508;19;20010;-69
2022/12/10 02:56:22;;;;;;;12.60;5.28;;;;;;;;;;7393800;19;20020;-69
2022/12/10 02:59:06;;;;;;;11.75;5.13;;;;;;;;;;7395035;19;20343;-69
2022/12/10 03:01:49;;;;;;;11.65;4.70;;;;;;;;;;7394644;19;20006;-69
2022/12/10 03:04:22;;;;;;;12.93;6.07;;;;;;;;;;7392481;19;20002;-69
2022/12/10 03:06:54;;;;;;;15.43;5.57;;;;;;;;;;7396759;19;20019;-70
2022/12/10 03:09:36;;;;;;;12.25;5.25;;;;;;;;;;7394379;19;20440;-70
2022/12/10 03:12:08;;;;;;;8.73;5.00;;;;;;;;;;7392614;19;20031;-70
2022/12/10 03:14:34;;;;;;;9.88;4.68;;;;;;;;;;7393378;19;20002;-69
2022/12/10 03:17:01;;;;;;;13.52;5.93;;;;;;;;;;7393006;19;20002;-70
2022/12/10 03:19:37;;;;;;;13.50;5.85;;;;;;;;;;7394007;19;20002;-70
2022/12/10 03:22:05;;;;;;;14.00;5.43;;;;;;;;;;7393515;19;20021;-71
2022/12/10 03:24:32;;;;;;;11.70;5.78;;;;;;;;;;7393317;19;20467;-71
2022/12/10 03:26:58;;;;;;;11.27;4.72;;;;;;;;;;7392539;19;20002;-70
2022/12/10 03:29:30;;;;;;;12.88;5.55;;;;;;;;;;7393787;19;20017;-70
2022/12/10 03:31:57;;;;;;;14.60;5.65;;;;;;;;;;7393956;19;20308;-70
2022/12/10 03:34:22;;;;;;;9.48;5.10;;;;;;;;;;7393133;19;20040;-70
2022/12/10 03:36:49;;;;;;;12.25;4.93;;;;;;;;;;7390669;19;20002;-69
2022/12/10 03:39:15;;;;;;;10.25;5.03;;;;;;;;;;7393502;19;20006;-69
2022/12/10 03:41:40;;;;;;;11.52;5.60;;;;;;;;;;7389988;19;20429;-70
2022/12/10 03:44:05;;;;;;;13.90;5.40;;;;;;;;;;7392892;19;20019;-70
2022/12/10 03:46:31;;;;;;;12.23;5.15;;;;;;;;;;7391994;19;20033;-72
2022/12/10 03:48:58;;;;;;;12.15;5.10;;;;;;;;;;7391666;19;20005;-70
2022/12/10 03:51:24;;;;;;;9.85;5.18;;;;;;;;;;7393018;19;20003;-70
2022/12/10 03:53:49;;;;;;;20.65;5.70;;;;;;;;;;7392665;19;20026;-70
2022/12/10 03:56:15;;;;;;;10.93;5.10;;;;;;;;;;7393451;19;20314;-70
2022/12/10 03:58:41;;;;;;;10.32;4.97;;;;;;;;;;7393011;19;19994;-70
2022/12/10 04:01:06;;;;;;;9.30;4.85;;;;;;;;;;7392553;19;20406;-69
2022/12/10 04:03:38;;;;;;;10.55;4.85;;;;;;;;;;7392621;19;20065;-69
2022/12/10 04:06:05;;;;;;;12.65;5.25;;;;;;;;;;7390853;19;20040;-70
2022/12/10 04:08:30;;;;;;;9.75;4.82;;;;;;;;;;7392797;19;19999;-70
2022/12/10 04:11:03;;;;;;;10.00;4.53;;;;;;;;;;7392340;19;20400;-70
2022/12/10 04:16:26;;;;;;;14.18;6.30;;;;;;;;;;7391640;19;20026;-70
2022/12/10 04:19:04;;;;;;;12.68;6.03;;;;;;;;;;7392325;19;20002;-70
2022/12/10 04:27:26;;;;;;;12.70;5.22;;;;;;;;;;7390239;19;20017;-73
2022/12/10 04:29:52;;;;;;;11.00;4.22;;;;;;;;;;7390223;19;20005;-73
2022/12/10 04:32:18;;;;;;;8.73;4.32;;;;;;;;;;7390367;19;20387;-73
2022/12/10 04:34:44;;;;;;;13.32;5.20;;;;;;;;;;7390554;19;19991;-73
2022/12/10 04:37:11;;;;;;;9.48;4.50;;;;;;;;;;7387844;19;19998;-73
2022/12/10 04:39:37;;;;;;;10.65;4.75;;;;;;;;;;7390550;19;20014;-73
2022/12/10 04:42:02;;;;;;;13.15;4.95;;;;;;;;;;7390194;19;19991;-72
2022/12/10 04:44:27;;;;;;;11.27;5.32;;;;;;;;;;7390270;19;20340;-72
2022/12/10 04:46:53;;;;;;;11.20;5.25;;;;;;;;;;7389220;19;19994;-72
2022/12/10 04:49:18;;;;;;;8.57;4.43;;;;;;;;;;7390659;19;19998;-73
2022/12/10 04:51:44;;;;;;;11.85;6.03;;;;;;;;;;7390229;19;20011;-72
2022/12/10 04:54:10;;;;;;;9.13;5.22;;;;;;;;;;7388091;19;19994;-72
2022/12/10 04:56:35;;;;;;;13.43;4.97;;;;;;;;;;7389509;19;20095;-73
2022/12/10 04:59:01;;;;;;;7.95;4.72;;;;;;;;;;7388851;19;20067;-73
2022/12/10 05:01:27;;;;;;;11.02;5.00;;;;;;;;;;7389567;19;19994;-73
2022/12/10 05:03:53;;;;;;;9.32;5.65;;;;;;;;;;7389430;19;20032;-73
2022/12/10 05:06:20;;;;;;;11.73;5.13;;;;;;;;;;7389198;19;19999;-73
2022/12/10 05:08:46;;;;;;;11.48;4.88;;;;;;;;;;7389954;19;19999;-73
2022/12/10 05:11:15;;;;;;;12.75;6.75;;;;;;;;;;7394222;19;20411;-73
2022/12/10 05:13:41;;;;;;;11.85;5.78;;;;;;;;;;7388807;19;19999;-73
2022/12/10 05:16:08;;;;;;;8.57;4.90;;;;;;;;;;7388984;19;20021;-74
2022/12/10 05:18:34;;;;;;;10.05;5.45;;;;;;;;;;7389731;19;19999;-73
2022/12/10 05:21:01;;;;;;;10.45;4.70;;;;;;;;;;7389429;19;19991;-73
2022/12/10 05:23:29;;;;;;;10.77;5.60;;;;;;;;;;7386793;19;19994;-73
2022/12/10 05:25:58;;;;;;;13.77;6.03;;;;;;;;;;7387853;19;20317;-73
2022/12/10 05:28:24;;;;;;;12.32;5.75;;;;;;;;;;7387667;19;20002;-73
2022/12/10 05:30:49;;;;;;;11.80;5.05;;;;;;;;;;7389391;19;20006;-74
2022/12/10 05:33:15;;;;;;;10.20;4.45;;;;;;;;;;7388641;19;20340;-74
2022/12/10 05:35:40;;;;;;;10.18;5.72;;;;;;;;;;7394546;19;20447;-73
2022/12/10 05:38:06;;;;;;;10.80;4.60;;;;;;;;;;7393743;19;19997;-73
2022/12/10 05:40:35;;;;;;;10.80;5.72;;;;;;;;;;7396588;19;20068;-73
2022/12/10 05:43:01;;;;;;;12.32;5.25;;;;;;;;;;7393801;19;20344;-72
2022/12/10 05:45:26;;;;;;;9.38;4.38;;;;;;;;;;7395095;19;19990;-73
2022/12/10 05:47:52;;;;;;;10.60;5.80;;;;;;;;;;7393564;19;20338;-73
2022/12/10 05:50:17;;;;;;;11.82;6.35;;;;;;;;;;7396029;19;20015;-72
2022/12/10 05:52:42;;;;;;;10.23;5.85;;;;;;;;;;7400423;19;19991;-73
2022/12/10 05:55:08;;;;;;;10.40;5.15;;;;;;;;;;7394638;19;20023;-72
2022/12/10 05:57:36;;;;;;;9.38;4.82;;;;;;;;;;7391929;19;20006;-73
2022/12/10 06:00:02;;;;;;;8.75;4.85;;;;;;;;;;7397651;19;20122;-74
2022/12/10 06:02:27;;;;;;;13.63;6.22;;;;;;;;;;7394237;19;20406;-73
2022/12/10 06:04:52;;;;;;;11.13;5.80;;;;;;;;;;7395013;19;20008;-74
2022/12/10 06:07:18;;;;;;;14.45;5.30;;;;;;;;;;7394019;19;20002;-72
2022/12/10 06:09:43;;;;;;;9.55;5.68;;;;;;;;;;7395387;19;19995;-73
2022/12/10 06:12:08;;;;;;;8.75;4.82;;;;;;;;;;7393526;19;19991;-73
2022/12/10 06:14:34;;;;;;;10.00;5.65;;;;;;;;;;7394778;19;20028;-73
2022/12/10 06:16:59;;;;;;;9.55;4.57;;;;;;;;;;7393798;19;20006;-73
2022/12/10 06:19:24;;;;;;;12.85;5.50;;;;;;;;;;7395018;19;19998;-73
2022/12/10 06:21:50;;;;;;;12.68;5.15;;;;;;;;;;7394852;19;20018;-73
2022/12/10 06:24:15;;;;;;;9.35;4.90;;;;;;;;;;7394487;19;20150;-72
2022/12/10 06:26:40;;;;;;;11.27;5.60;;;;;;;;;;7392431;19;20398;-72
2022/12/10 06:29:06;;;;;;;11.20;5.20;;;;;;;;;;7394690;19;20448;-72
2022/12/10 06:31:31;;;;;;;12.35;5.50;;;;;;;;;;7394734;19;20456;-73
2022/12/10 06:33:56;;;;;;;10.52;5.07;;;;;;;;;;7394415;19;20014;-73
2022/12/10 06:36:22;;;;;;;7.40;4.25;;;;;;;;;;7393826;19;20002;-73
2022/12/10 06:38:47;;;;;;;11.20;5.30;;;;;;;;;;7393282;19;20309;-72
2022/12/10 06:41:14;;;;;;;10.48;5.47;;;;;;;;;;7394379;19;20197;-74
2022/12/10 06:43:40;;;;;;;11.68;6.13;;;;;;;;;;7391472;19;20018;-72
2022/12/10 06:46:07;;;;;;;10.30;5.25;;;;;;;;;;7392386;19;20105;-73
2022/12/10 06:48:34;;;;;;;13.48;6.28;;;;;;;;;;7394300;19;19995;-73
2022/12/10 06:50:59;;;;;;;16.50;6.82;;;;;;;;;;7394125;19;19994;-73
2022/12/10 06:53:25;;;;;;;11.23;5.65;;;;;;;;;;7393575;19;20002;-73
2022/12/10 06:55:50;;;;;;;11.95;5.47;;;;;;;;;;7393916;19;19994;-73
2022/12/10 06:58:15;;;;;;;14.10;6.03;;;;;;;;;;7391961;19;20409;-73
2022/12/10 07:00:40;;;;;;;14.30;6.70;;;;;;;;;;7393868;19;20002;-74
2022/12/10 07:03:06;;;;;;;13.48;6.45;;;;;;;;;;7391732;19;20023;-73
2022/12/10 07:05:31;;;;;;;12.20;6.18;;;;;;;;;;7393569;19;20019;-73
2022/12/10 07:07:56;;;;;;;14.45;6.68;;;;;;;;;;7389925;19;20022;-73
2022/12/10 07:10:22;;;;;;;18.30;7.72;;;;;;;;;;7391782;19;20002;-73
2022/12/10 07:12:47;;;;;;;13.55;6.38;;;;;;;;;;7392023;19;19999;-74
2022/12/10 07:15:13;;;;;;;16.02;7.00;;;;;;;;;;7393415;19;20054;-73
2022/12/10 07:17:38;;;;;;;14.50;7.25;;;;;;;;;;7395868;19;20017;-72
2022/12/10 07:20:04;;;;;;;13.38;6.45;;;;;;;;;;7393048;19;19998;-72
2022/12/10 07:22:29;;;;;;;15.05;7.30;;;;;;;;;;7392087;19;19995;-73
2022/12/10 07:24:55;;;;;;;14.70;7.60;;;;;;;;;;7392449;19;19991;-73
2022/12/10 07:27:20;;;;;;;15.05;7.60;;;;;;;;;;7391573;19;19994;-74
2022/12/10 07:29:45;;;;;;;14.75;7.70;;;;;;;;;;7392970;19;20324;-74
2022/12/10 07:32:11;;;;;;;14.73;6.97;;;;;;;;;;7393333;19;20438;-74
2022/12/10 07:34:36;;;;;;;18.15;7.07;;;;;;;;;;7392090;19;20440;-75
2022/12/10 07:37:02;;;;;;;12.50;6.38;;;;;;;;;;7389939;19;20330;-74
2022/12/10 07:39:27;;;;;;;15.25;6.90;;;;;;;;;;7392713;19;20018;-74
2022/12/10 07:41:53;;;;;;;16.30;7.28;;;;;;;;;;7392216;19;19995;-73
2022/12/10 07:44:20;;;;;;;13.60;6.53;;;;;;;;;;7390091;19;20019;-72
2022/12/10 07:46:50;;;;;;;15.57;6.53;;;;;;;;;;7390764;19;20089;-73
2022/12/10 07:49:16;;;;;;;14.13;6.43;;;;;;;;;;7392134;19;20011;-73
2022/12/10 07:51:45;;;;;;;11.85;5.95;;;;;;;;;;7392635;19;19998;-73
2022/12/10 07:54:11;;;;;;;12.90;6.68;;;;;;;;;;7392084;19;20002;-73
2022/12/10 07:56:36;;;;;;;13.98;7.00;;;;;;;;;;7390941;19;20013;-75
2022/12/10 07:59:02;;;;;;;14.60;6.25;;;;;;;;;;7393142;19;20002;-73
2022/12/10 08:01:27;;;;;;;11.20;6.10;;;;;;;;;;7391611;19;19995;-74
2022/12/10 08:03:56;;;;;;;12.52;6.43;;;;;;;;;;7389702;19;19998;-72
2022/12/10 08:06:22;;;;;;;12.88;7.50;;;;;;;;;;7391771;19;20003;-72
2022/12/10 08:08:49;;;;;;;12.85;5.88;;;;;;;;;;7391448;19;19999;-74
2022/12/10 08:11:16;;;;;;;22.45;6.85;;;;;;;;;;7391690;19;20329;-73
2022/12/10 08:13:42;;;;;;;11.45;6.10;;;;;;;;;;7390809;19;20007;-73
2022/12/10 08:16:17;;;;;;;8.82;5.10;;;;;;;;;;7390911;19;20106;-73
2022/12/10 08:18:44;;;;;;;12.18;5.93;;;;;;;;;;7391879;19;20027;-73
2022/12/10 08:21:15;;;;;;;11.02;6.35;;;;;;;;;;7391396;19;20347;-73
2022/12/10 08:23:41;;;;;;;12.43;5.97;;;;;;;;;;7389315;19;20007;-73
2022/12/10 08:26:12;;;;;;;13.77;4.78;;;;;;;;;;7390737;19;20025;-73
2022/12/10 08:28:38;;;;;;;2.47;1.33;;;;;;;;;;7390190;19;20340;-73
2022/12/10 08:31:04;;;;;;;3.65;2.08;;;;;;;;;;7390884;19;20428;-73
2022/12/10 08:33:33;;;;;;;2.38;1.65;;;;;;;;;;7390356;19;20476;-75
2022/12/10 08:35:59;;;;;;;9.10;2.80;;;;;;;;;;7390437;19;19998;-74
2022/12/10 08:38:25;;;;;;;5.70;3.83;;;;;;;;;;7389289;19;20364;-72
2022/12/10 08:40:50;;;;;;;4.78;2.85;;;;;;;;;;7390817;19;20006;-72
2022/12/10 08:43:16;;;;;;;7.00;3.65;;;;;;;;;;7389020;19;20005;-72
2022/12/10 08:45:41;;;;;;;11.05;4.05;;;;;;;;;;7390923;19;20349;-73
2022/12/10 08:48:06;;;;;;;5.60;3.03;;;;;;;;;;7388794;19;20498;-72
2022/12/10 08:50:32;;;;;;;6.45;3.70;;;;;;;;;;7388921;19;20512;-72
2022/12/10 08:52:57;;;;;;;7.45;4.57;;;;;;;;;;7389672;19;20495;-72
2022/12/10 08:55:23;;;;;;;7.45;3.50;;;;;;;;;;7390352;19;20027;-72
2022/12/10 08:57:48;;;;;;;8.57;3.40;;;;;;;;;;7388798;19;20019;-72
2022/12/10 09:00:14;;;;;;;6.55;4.18;;;;;;;;;;7390062;19;20037;-72
2022/12/10 09:02:39;;;;;;;10.35;4.97;;;;;;;;;;7388464;19;20122;-73
2022/12/10 09:05:05;;;;;;;6.63;3.17;;;;;;;;;;7389804;19;20006;-73
2022/12/10 09:07:31;;;;;;;5.53;3.40;;;;;;;;;;7390857;19;20009;-72
2022/12/10 09:09:56;;;;;;;6.15;2.92;;;;;;;;;;7389745;19;19999;-72
2022/12/10 09:12:21;;;;;;;5.70;3.50;;;;;;;;;;7394742;19;20002;-73
2022/12/10 09:14:47;;;;;;;7.75;4.28;;;;;;;;;;7397023;19;19998;-73
2022/12/10 09:17:12;;;;;;;9.43;5.63;;;;;;;;;;7395267;19;20018;-72
2022/12/10 09:19:37;;;;;;;14.07;6.30;;;;;;;;;;7397073;19;20036;-73
2022/12/10 09:22:03;;;;;;;13.52;6.15;;;;;;;;;;7396548;19;20019;-73
2022/12/10 09:24:28;;;;;;;13.27;6.07;;;;;;;;;;7396768;19;19999;-73
2022/12/10 09:26:53;;;;;;;11.00;5.97;;;;;;;;;;7394056;19;20027;-73
2022/12/10 09:29:19;;;;;;;12.88;6.47;;;;;;;;;;7396720;19;20000;-73
2022/12/10 09:31:44;;;;;;;13.65;6.07;;;;;;;;;;7396729;19;19998;-74
2022/12/10 09:34:10;;;;;;;12.43;7.15;;;;;;;;;;7396139;19;20313;-74
2022/12/10 09:36:35;;;;;;;11.25;6.10;;;;;;;;;;7395430;19;19999;-73
2022/12/10 09:39:01;;;;;;;14.60;6.53;;;;;;;;;;7396417;19;19999;-73
2022/12/10 09:41:56;;;;;;;12.25;6.13;;;;;;;;;;7396437;19;20034;-73
2022/12/10 09:44:40;;;;;;;12.07;6.38;;;;;;;;;;7394483;19;19998;-74
2022/12/10 09:47:08;;;;;;;13.27;6.22;;;;;;;;;;7394969;19;19999;-73
2022/12/10 09:49:58;;;;;;;18.10;6.55;;;;;;;;;;7400688;19;20003;-73
2022/12/10 09:52:27;;;;;;;14.20;6.80;;;;;;;;;;7400520;19;20446;-74
2022/12/10 09:54:56;;;;;;;12.45;6.22;;;;;;;;;;7395650;19;19994;-74
2022/12/10 09:57:39;;;;;;;14.48;7.00;;;;;;;;;;7394048;19;20006;-73
2022/12/10 10:00:11;;;;;;;15.85;6.10;;;;;;;;;;7396400;19;20003;-73
2022/12/10 10:02:37;;;;;;;11.52;6.10;;;;;;;;;;7394123;19;20026;-72
2022/12/10 10:05:12;;;;;;;14.98;6.70;;;;;;;;;;7400222;19;20097;-72
2022/12/10 10:08:03;;;;;;;14.48;7.25;;;;;;;;;;7393694;19;20003;-72
2022/12/10 10:10:31;;;;;;;15.50;7.57;;;;;;;;;;7396041;19;20074;-72
2022/12/10 10:13:08;;;;;;;12.93;6.95;;;;;;;;;;7395003;19;20005;-72
2022/12/10 10:15:37;;;;;;;13.68;7.72;;;;;;;;;;7395629;19;20034;-72
2022/12/10 10:18:14;;;;;;;12.57;6.80;;;;;;;;;;7392800;19;20062;-72
2022/12/10 10:20:40;;;;;;;12.10;7.13;;;;;;;;;;7395463;19;20004;-72
2022/12/10 10:23:05;;;;;;;11.52;6.63;;;;;;;;;;7390724;19;20059;-71
2022/12/10 10:25:31;;;;;;;14.60;6.88;;;;;;;;;;7395242;19;19998;-73
2022/12/10 10:27:56;;;;;;;11.38;6.80;;;;;;;;;;7392902;19;20038;-71
2022/12/10 10:30:24;;;;;;;10.63;6.10;;;;;;;;;;7395482;19;20053;-71
2022/12/10 10:32:53;;;;;;;13.95;6.55;;;;;;;;;;7395050;19;19998;-71
2022/12/10 10:35:20;;;;;;;12.38;6.25;;;;;;;;;;7395521;19;19990;-72
2022/12/10 10:37:46;;;;;;;12.85;7.07;;;;;;;;;;7393552;19;19994;-72
2022/12/10 10:40:22;;;;;;;12.98;7.03;;;;;;;;;;7395131;19;19994;-71
2022/12/10 10:42:48;;;;;;;10.90;6.07;;;;;;;;;;7393244;19;19999;-71
2022/12/10 10:45:35;;;;;;;14.38;6.63;;;;;;;;;;7394991;19;19995;-69
2022/12/10 10:48:16;;;;;;;13.45;6.90;;;;;;;;;;7393379;19;19998;-70
2022/12/10 10:50:53;;;;;;;12.93;6.05;;;;;;;;;;7394992;19;19999;-72
2022/12/10 10:53:29;;;;;;;11.13;5.65;;;;;;;;;;7394268;19;19994;-69
2022/12/10 10:55:56;;;;;;;13.07;6.68;;;;;;;;;;7395680;19;20341;-71
2022/12/10 10:58:24;;;;;;;14.63;5.85;;;;;;;;;;7392769;19;20006;-71
2022/12/10 11:00:58;;;;;;;15.40;5.80;;;;;;;;;;7394445;19;19998;-71
2022/12/10 11:03:24;;;;;;;11.20;5.75;;;;;;;;;;7392067;19;20002;-71
2022/12/10 11:05:50;;;;;;;10.65;5.97;;;;;;;;;;7394269;19;20436;-71
2022/12/10 11:08:18;;;;;;;13.55;5.88;;;;;;;;;;7392456;19;19998;-71
2022/12/10 11:11:04;;;;;;;13.13;6.13;;;;;;;;;;7394139;19;20448;-72
2022/12/10 11:13:33;;;;;;;12.27;5.85;;;;;;;;;;7393487;19;20480;-71
2022/12/10 11:16:08;;;;;;;11.15;5.63;;;;;;;;;;7398316;19;20002;-70
2022/12/10 11:18:36;;;;;;;12.02;5.13;;;;;;;;;;7393739;19;19995;-72
2022/12/10 11:21:16;;;;;;;10.35;5.10;;;;;;;;;;7393711;19;20425;-70
2022/12/10 11:23:52;;;;;;;7.95;4.35;;;;;;;;;;7391394;19;20013;-71
2022/12/10 11:26:39;;;;;;;8.68;4.47;;;;;;;;;;7393281;19;20002;-71
2022/12/10 11:29:29;;;;;;;11.48;4.65;;;;;;;;;;7393736;19;19995;-70
2022/12/10 11:32:09;;;;;;;7.72;4.30;;;;;;;;;;7393366;19;19995;-70
2022/12/10 11:35:07;;;;;;;8.57;4.15;;;;;;;;;;7390787;19;20358;-71
2022/12/10 11:37:48;;;;;;;8.90;4.07;;;;;;;;;;7389457;19;20333;-71
2022/12/10 11:40:32;;;;;;;9.43;4.50;;;;;;;;;;7392929;19;20002;-71
2022/12/10 11:43:38;;;;;;;8.77;4.68;;;;;;;;;;7390240;19;20002;-69
2022/12/10 11:46:23;;;;;;;7.85;4.25;;;;;;;;;;7395403;19;20009;-72
2022/12/10 11:49:06;;;;;;;9.20;4.55;;;;;;;;;;7394709;19;19998;-70
2022/12/10 11:51:40;;;;;;;8.75;4.70;;;;;;;;;;7392473;19;20042;-71
2022/12/10 11:54:24;;;;;;;7.78;4.07;;;;;;;;;;7392277;19;20001;-72
2022/12/10 11:57:01;;;;;;;10.10;4.55;;;;;;;;;;7394852;19;19995;-71
2022/12/10 11:59:48;;;;;;;8.70;4.15;;;;;;;;;;7393988;19;20397;-70
2022/12/10 12:02:48;;;;;;;7.72;4.00;;;;;;;;;;7391694;19;20511;-70
2022/12/10 12:05:28;;;;;;;8.55;4.20;;;;;;;;;;7392323;19;20010;-70
2022/12/10 12:08:23;;;;;;;9.57;4.85;;;;;;;;;;7389342;19;19994;-72
2022/12/10 12:11:13;;;;;;;11.02;4.72;;;;;;;;;;7392336;19;20003;-72
2022/12/10 12:13:44;;;;;;;10.55;4.93;;;;;;;;;;7391425;19;19998;-71
2022/12/10 12:16:22;;;;;;;10.60;4.57;;;;;;;;;;7390437;19;20362;-70
2022/12/10 12:18:59;;;;;;;9.27;4.97;;;;;;;;;;7391998;19;19998;-71
2022/12/10 12:21:24;;;;;;;7.57;4.20;;;;;;;;;;7391732;19;20019;-72
2022/12/10 12:23:55;;;;;;;8.00;4.60;;;;;;;;;;7389659;19;19995;-70
2022/12/10 12:26:31;;;;;;;8.85;4.78;;;;;;;;;;7391532;19;19990;-70
2022/12/10 12:29:03;;;;;;;9.20;4.30;;;;;;;;;;7391722;19;20062;-72
2022/12/10 12:31:35;;;;;;;7.85;4.00;;;;;;;;;;7391580;19;20011;-70
2022/12/10 12:34:14;;;;;;;9.38;4.50;;;;;;;;;;7390939;19;19986;-71
2022/12/10 12:36:40;;;;;;;8.60;4.35;;;;;;;;;;7390527;19;20487;-70
2022/12/10 12:39:20;;;;;;;8.88;4.38;;;;;;;;;;7391216;19;20456;-70
2022/12/10 12:41:57;;;;;;;7.53;3.95;;;;;;;;;;7391661;19;20058;-70
2022/12/10 12:44:31;;;;;;;8.95;4.05;;;;;;;;;;7392458;19;20003;-70
2022/12/10 12:47:10;;;;;;;7.97;4.00;;;;;;;;;;7404577;19;20051;-71
2022/12/10 12:49:39;;;;;;;10.02;4.53;;;;;;;;;;7405649;19;19998;-71
2022/12/10 12:52:32;;;;;;;9.57;4.30;;;;;;;;;;7405516;19;19998;-71
2022/12/10 12:55:02;;;;;;;11.07;4.30;;;;;;;;;;7404457;19;19998;-69
2022/12/10 12:57:46;;;;;;;8.37;3.90;;;;;;;;;;7404298;19;20005;-70
2022/12/10 13:00:18;;;;;;;7.32;3.88;;;;;;;;;;7405134;19;19994;-71
2022/12/10 13:03:18;;;;;;;10.55;4.28;;;;;;;;;;7403817;19;20014;-69
2022/12/10 13:05:44;;;;;;;9.80;3.67;;;;;;;;;;7402826;19;20002;-71
2022/12/10 13:08:18;;;;;;;9.30;4.28;;;;;;;;;;7402990;19;19991;-72
2022/12/10 13:10:53;;;;;;;11.27;4.53;;;;;;;;;;7404692;19;20456;-70
2022/12/10 13:13:31;;;;;;;12.15;5.55;;;;;;;;;;7405102;19;20043;-70
2022/12/10 13:16:35;;;;;;;9.25;4.78;;;;;;;;;;7404962;19;20417;-70
2022/12/10 13:19:30;;;;;;;11.80;5.50;;;;;;;;;;7404261;19;20007;-70
2022/12/10 13:21:59;;;;;;;16.05;5.75;;;;;;;;;;7403395;19;20002;-70
2022/12/10 13:24:36;;;;;;;10.57;5.97;;;;;;;;;;7403705;19;20019;-69
2022/12/10 13:27:11;;;;;;;13.52;5.70;;;;;;;;;;7403588;19;20477;-70
2022/12/10 13:29:46;;;;;;;13.50;6.57;;;;;;;;;;7402587;19;20504;-71
2022/12/10 13:32:30;;;;;;;12.18;5.63;;;;;;;;;;7404338;19;19998;-72
2022/12/10 13:35:07;;;;;;;11.88;5.75;;;;;;;;;;7404046;19;20009;-70
2022/12/10 13:37:48;;;;;;;13.48;6.13;;;;;;;;;;7403391;19;20317;-70
2022/12/10 13:40:23;;;;;;;;;;;;;;;;;;7403688;19;19999;-70
2022/12/10 13:46:20;;;;;;;9.57;4.57;;;;;;;;;;7403428;19;19990;-71
2022/12/10 13:48:46;;;;;;;9.02;4.65;;;;;;;;;;7402252;19;20075;-71
2022/12/10 13:51:21;;;;;;;9.98;4.70;;;;;;;;;;7407455;19;20006;-71
2022/12/10 13:54:05;;;;;;;10.60;4.80;;;;;;;;;;7403215;19;20003;-70
2022/12/10 13:56:45;;;;;;;10.73;5.15;;;;;;;;;;7398829;19;19994;-69
2022/12/10 13:59:29;;;;;;;17.43;5.60;;;;;;;;;;7396858;19;20002;-71
2022/12/10 14:02:28;;;;;;;10.70;5.50;;;;;;;;;;7396444;19;19994;-71
2022/12/10 14:05:27;;;;;;;11.95;5.53;;;;;;;;;;7394477;19;19994;-69
2022/12/10 14:07:55;;;;;;;11.90;5.25;;;;;;;;;;7394531;19;20414;-69
2022/12/10 14:10:29;;;;;;;12.85;5.90;;;;;;;;;;7396676;19;20018;-71
2022/12/10 14:12:55;;;;;;;13.23;5.25;;;;;;;;;;7395693;19;20002;-71
2022/12/10 14:15:25;;;;;;;12.13;5.35;;;;;;;;;;7395850;19;19992;-71
2022/12/10 14:17:59;;;;;;;12.90;5.65;;;;;;;;;;7393937;19;20005;-70
2022/12/10 14:20:25;;;;;;;11.48;5.85;;;;;;;;;;7396759;19;20344;-69
2022/12/10 14:23:32;;;;;;;11.82;5.10;;;;;;;;;;7392095;19;20066;-70
2022/12/10 14:25:45;;;;;;;13.65;6.65;;;;;;;;;;7394085;19;20026;-71
2022/12/10 14:28:13;;;;;;;16.75;5.95;;;;;;;;;;7393928;19;20026;-70
2022/12/10 14:30:43;;;;;;;11.02;5.75;;;;;;;;;;7395267;19;20087;-71
2022/12/10 14:33:13;;;;;;;12.75;5.45;;;;;;;;;;7392924;19;20023;-71
2022/12/10 14:35:38;;;;;;;11.27;5.90;;;;;;;;;;7395114;19;20003;-70
2022/12/10 14:38:04;;;;;;;12.48;5.93;;;;;;;;;;7393457;19;20019;-71
2022/12/10 14:40:35;;;;;;;13.88;5.90;;;;;;;;;;7395723;19;19995;-72
2022/12/10 14:43:05;;;;;;;;;;;;;;;;;;7393873;19;20002;-71
2022/12/10 14:45:41;;;;;;;9.75;5.07;;;;;;;;;;7394961;19;19919;-71
2022/12/10 14:48:09;;;;;;;12.55;5.85;;;;;;;;;;7391055;19;19998;-71
2022/12/10 14:50:37;;;;;;;13.52;5.30;;;;;;;;;;7394696;19;20009;-70
2022/12/10 14:53:05;;;;;;;9.68;4.93;;;;;;;;;;7392273;19;20019;-70
2022/12/10 14:55:34;;;;;;;10.32;5.25;;;;;;;;;;7394381;19;20013;-69
2022/12/10 14:58:03;;;;;;;12.73;5.50;;;;;;;;;;7393108;19;20433;-70
2022/12/10 15:00:28;;;;;;;10.90;5.00;;;;;;;;;;7394319;19;20447;-71
2022/12/10 15:02:58;;;;;;;9.63;4.70;;;;;;;;;;7392496;19;20104;-71
2022/12/10 15:05:27;;;;;;;11.70;5.00;;;;;;;;;;7394373;19;20023;-71